Eurasian Highway — 7JKY — position and weather

sailwx.info

Track history (hours):
 
Tides and Currents Weather Stations Pressure Air Temp Water Temp Dewpoint Dewpoint Depression Visibility Wind Speed Wind Dir Waves Ship Positions

Eurasian Highway

Last reported at 2015-Mar-24 04:33 UTC. Time now 2015-Mar-31 09:48 UTC.
Position N 01°16' E 104°12'.

Length 199 m; draft 8 m.

Type: Cargo ship. MMSI: 432839000.

Date/timePositionNaut miles runAvg speedWind from/ knotsBaromVisibWave heightAir tempDewpointWater temp
2015-Mar-24 04:33N 01°16' E 104°12'1515.1
2015-Mar-24 03:33N 01°14' E 103°57'1010.2
2015-Mar-24 02:33N 01°14' E 103°47'4 2.8
2015-Mar-24 01:13N 01°17' E 103°45'0 0.0
2015-Mar-23 16:06N 01°17' E 103°45'0 0.0
2015-Mar-23 15:30N 01°17' E 103°45'0 0.0
2015-Mar-23 14:33N 01°17' E 103°45'0 0.0
2015-Mar-23 13:33N 01°17' E 103°45'1 0.6
2015-Mar-23 12:33N 01°17' E 103°44'5 4.7
2015-Mar-23 11:33N 01°13' E 103°48'8 8.4
2015-Mar-23 10:33N 01°14' E 103°56'1111.4
2015-Mar-23 09:33N 01°16' E 104°07'  
2015-Mar-21 03:26S 07°20' E 115°05'1617.8
2015-Mar-21 02:34S 07°32' E 115°15'1818.2
2015-Mar-21 01:33S 07°47' E 115°25'  
2015-Mar-17 09:33S 31°55' E 115°35'1111.2
2015-Mar-17 08:33S 32°03' E 115°45'0 0.5
2015-Mar-17 07:32S 32°03' E 115°45'0 0.0
2015-Mar-17 06:32S 32°03' E 115°45'0 0.0
2015-Mar-17 05:29S 32°03' E 115°45'0 0.0
2015-Mar-17 04:31S 32°03' E 115°45'0 0.0
2015-Mar-17 03:32S 32°03' E 115°45'0 0.0
2015-Mar-17 02:32S 32°03' E 115°45'0 0.0
2015-Mar-17 01:31S 32°03' E 115°45'3 3.2
2015-Mar-17 00:33S 32°02' E 115°41'1111.0
2015-Mar-16 23:33S 31°57' E 115°30'  
Track history (hours):
 
Tides and Currents Weather Stations Pressure Air Temp Water Temp Dewpoint Dewpoint Depression Visibility Wind Speed Wind Dir Waves Ship Positions

Eurasian Highway

Last reported at 2015-Mar-24 04:33 UTC. Time now 2015-Mar-31 09:48 UTC.
Position N 01°16' E 104°12'.

Length 199 m; draft 8 m.

Type: Cargo ship. MMSI: 432839000.

Date/timePositionNaut miles runAvg speedWind from/ knotsBaromVisibWave heightAir tempDewpointWater temp
2015-Mar-24 04:33N 01°16' E 104°12'1515.1
2015-Mar-24 03:33N 01°14' E 103°57'1010.2
2015-Mar-24 02:33N 01°14' E 103°47'4 2.8
2015-Mar-24 01:13N 01°17' E 103°45'0 0.0
2015-Mar-23 16:06N 01°17' E 103°45'0 0.0
2015-Mar-23 15:30N 01°17' E 103°45'0 0.0
2015-Mar-23 14:33N 01°17' E 103°45'0 0.0
2015-Mar-23 13:33N 01°17' E 103°45'1 0.6
2015-Mar-23 12:33N 01°17' E 103°44'5 4.7
2015-Mar-23 11:33N 01°13' E 103°48'8 8.4
2015-Mar-23 10:33N 01°14' E 103°56'1111.4
2015-Mar-23 09:33N 01°16' E 104°07'  
2015-Mar-21 03:26S 07°20' E 115°05'1617.8
2015-Mar-21 02:34S 07°32' E 115°15'1818.2
2015-Mar-21 01:33S 07°47' E 115°25'  
2015-Mar-17 09:33S 31°55' E 115°35'1111.2
2015-Mar-17 08:33S 32°03' E 115°45'0 0.5
2015-Mar-17 07:32S 32°03' E 115°45'0 0.0
2015-Mar-17 06:32S 32°03' E 115°45'0 0.0
2015-Mar-17 05:29S 32°03' E 115°45'0 0.0
2015-Mar-17 04:31S 32°03' E 115°45'0 0.0
2015-Mar-17 03:32S 32°03' E 115°45'0 0.0
2015-Mar-17 02:32S 32°03' E 115°45'0 0.0
2015-Mar-17 01:31S 32°03' E 115°45'3 3.2
2015-Mar-17 00:33S 32°02' E 115°41'1111.0
2015-Mar-16 23:33S 31°57' E 115°30'  

Dump ship's entire track history